sensor_id;sensor_type;location;lat;lon;timestamp;pressure;altitude;pressure_sealevel;temperature;humidity
77192;BME280;66172;48.526;8.078;2023-09-19T00:00:57;99294.78;;;16.85;99.50
77192;BME280;66172;48.526;8.078;2023-09-19T00:03:24;99292.41;;;16.77;99.32
77192;BME280;66172;48.526;8.078;2023-09-19T00:05:51;99293.59;;;16.79;99.07
77192;BME280;66172;48.526;8.078;2023-09-19T00:08:17;99298.75;;;16.88;98.04
77192;BME280;66172;48.526;8.078;2023-09-19T00:10:43;99294.06;;;16.88;98.52
77192;BME280;66172;48.526;8.078;2023-09-19T00:13:10;99297.19;;;16.90;98.09
77192;BME280;66172;48.526;8.078;2023-09-19T00:15:40;99307.38;;;16.90;97.59
77192;BME280;66172;48.526;8.078;2023-09-19T00:18:08;99298.38;;;16.93;97.85
77192;BME280;66172;48.526;8.078;2023-09-19T00:20:37;99297.19;;;16.90;98.10
77192;BME280;66172;48.526;8.078;2023-09-19T00:23:04;99302.31;;;16.92;97.53
77192;BME280;66172;48.526;8.078;2023-09-19T00:25:35;99296.03;;;16.91;97.27
77192;BME280;66172;48.526;8.078;2023-09-19T00:28:04;99295.63;;;16.93;97.47
77192;BME280;66172;48.526;8.078;2023-09-19T00:30:31;99305.38;;;16.83;98.65
77192;BME280;66172;48.526;8.078;2023-09-19T00:32:57;99300.69;;;16.84;98.71
77192;BME280;66172;48.526;8.078;2023-09-19T00:35:23;99305.38;;;16.80;98.36
77192;BME280;66172;48.526;8.078;2023-09-19T00:37:53;99295.63;;;16.93;96.61
77192;BME280;66172;48.526;8.078;2023-09-19T00:40:19;99301.91;;;16.93;96.73
77192;BME280;66172;48.526;8.078;2023-09-19T00:42:48;99305.41;;;16.87;98.26
77192;BME280;66172;48.526;8.078;2023-09-19T00:45:16;99310.50;;;16.81;98.90
77192;BME280;66172;48.526;8.078;2023-09-19T00:47:50;99299.47;;;16.78;99.38
77192;BME280;66172;48.526;8.078;2023-09-19T00:50:18;99312.03;;;16.79;99.04
77192;BME280;66172;48.526;8.078;2023-09-19T00:52:48;99317.50;;;16.79;97.83
77192;BME280;66172;48.526;8.078;2023-09-19T00:55:16;99316.72;;;16.78;97.88
77192;BME280;66172;48.526;8.078;2023-09-19T00:57:42;99322.28;;;16.89;96.83
77192;BME280;66172;48.526;8.078;2023-09-19T01:00:10;99326.22;;;16.88;96.28
77192;BME280;66172;48.526;8.078;2023-09-19T01:02:44;99330.44;;;16.78;97.66
77192;BME280;66172;48.526;8.078;2023-09-19T01:05:11;99326.13;;;16.74;98.39
77192;BME280;66172;48.526;8.078;2023-09-19T01:07:38;99335.22;;;16.85;97.52
77192;BME280;66172;48.526;8.078;2023-09-19T01:10:08;99330.75;;;16.63;100.00
77192;BME280;66172;48.526;8.078;2023-09-19T01:12:47;99324.88;;;16.64;99.37
77192;BME280;66172;48.526;8.078;2023-09-19T01:18:30;99325.88;;;16.42;100.00
77192;BME280;66172;48.526;8.078;2023-09-19T01:21:11;99321.34;;;16.60;100.00
77192;BME280;66172;48.526;8.078;2023-09-19T01:26:30;99335.66;;;16.39;100.00
77192;BME280;66172;48.526;8.078;2023-09-19T01:29:21;99327.31;;;16.29;100.00
77192;BME280;66172;48.526;8.078;2023-09-19T01:31:59;99322.72;;;16.43;100.00
77192;BME280;66172;48.526;8.078;2023-09-19T01:34:27;99328.56;;;16.38;100.00
77192;BME280;66172;48.526;8.078;2023-09-19T01:36:53;99332.91;;;16.39;100.00
77192;BME280;66172;48.526;8.078;2023-09-19T01:39:19;99327.53;;;16.54;100.00
77192;BME280;66172;48.526;8.078;2023-09-19T01:41:59;99325.13;;;16.48;100.00
77192;BME280;66172;48.526;8.078;2023-09-19T01:44:53;99332.69;;;16.59;100.00
77192;BME280;66172;48.526;8.078;2023-09-19T01:47:32;99339.00;;;16.63;100.00
77192;BME280;66172;48.526;8.078;2023-09-19T01:52:57;99339.34;;;16.61;100.00
77192;BME280;66172;48.526;8.078;2023-09-19T01:55:28;99341.72;;;16.63;100.00
77192;BME280;66172;48.526;8.078;2023-09-19T01:58:06;99338.63;;;16.71;99.99
77192;BME280;66172;48.526;8.078;2023-09-19T02:00:37;99336.22;;;16.59;100.00
77192;BME280;66172;48.526;8.078;2023-09-19T02:03:04;99340.78;;;16.44;100.00
77192;BME280;66172;48.526;8.078;2023-09-19T02:05:30;99344.69;;;16.43;100.00
77192;BME280;66172;48.526;8.078;2023-09-19T02:07:56;99352.06;;;16.32;100.00
77192;BME280;66172;48.526;8.078;2023-09-19T02:10:22;99350.13;;;16.40;100.00
77192;BME280;66172;48.526;8.078;2023-09-19T02:12:50;99353.22;;;16.31;100.00
77192;BME280;66172;48.526;8.078;2023-09-19T02:15:16;99344.25;;;16.38;100.00
77192;BME280;66172;48.526;8.078;2023-09-19T02:17:43;99350.06;;;16.33;100.00
77192;BME280;66172;48.526;8.078;2023-09-19T02:20:11;99352.53;;;16.45;100.00
77192;BME280;66172;48.526;8.078;2023-09-19T02:22:41;99350.25;;;16.54;100.00
77192;BME280;66172;48.526;8.078;2023-09-19T02:25:08;99352.56;;;16.48;100.00
77192;BME280;66172;48.526;8.078;2023-09-19T02:27:34;99357.56;;;16.36;100.00
77192;BME280;66172;48.526;8.078;2023-09-19T02:30:00;99361.06;;;16.33;100.00
77192;BME280;66172;48.526;8.078;2023-09-19T02:32:30;99359.66;;;16.49;100.00
77192;BME280;66172;48.526;8.078;2023-09-19T02:34:57;99363.97;;;16.54;100.00
77192;BME280;66172;48.526;8.078;2023-09-19T02:37:25;99366.25;;;16.41;100.00
77192;BME280;66172;48.526;8.078;2023-09-19T02:39:51;99365.75;;;16.29;100.00
77192;BME280;66172;48.526;8.078;2023-09-19T02:42:17;99366.19;;;16.34;100.00
77192;BME280;66172;48.526;8.078;2023-09-19T02:44:43;99372.88;;;16.40;100.00
77192;BME280;66172;48.526;8.078;2023-09-19T02:47:12;99365.09;;;16.42;100.00
77192;BME280;66172;48.526;8.078;2023-09-19T02:49:40;99363.56;;;16.48;100.00
77192;BME280;66172;48.526;8.078;2023-09-19T02:52:08;99365.53;;;16.52;100.00
77192;BME280;66172;48.526;8.078;2023-09-19T02:54:33;99363.28;;;16.61;100.00
77192;BME280;66172;48.526;8.078;2023-09-19T02:56:59;99368.75;;;16.57;99.90
77192;BME280;66172;48.526;8.078;2023-09-19T02:59:25;99371.47;;;16.57;100.00
77192;BME280;66172;48.526;8.078;2023-09-19T03:01:51;99366.81;;;16.61;100.00
77192;BME280;66172;48.526;8.078;2023-09-19T03:04:19;99366.69;;;16.50;100.00
77192;BME280;66172;48.526;8.078;2023-09-19T03:06:46;99366.59;;;16.40;100.00
77192;BME280;66172;48.526;8.078;2023-09-19T03:09:11;99364.22;;;16.35;100.00
77192;BME280;66172;48.526;8.078;2023-09-19T03:11:39;99361.03;;;16.29;100.00
77192;BME280;66172;48.526;8.078;2023-09-19T03:14:06;99363.41;;;16.31;100.00
77192;BME280;66172;48.526;8.078;2023-09-19T03:16:32;99372.06;;;16.36;100.00
77192;BME280;66172;48.526;8.078;2023-09-19T03:18:59;99372.13;;;16.43;100.00
77192;BME280;66172;48.526;8.078;2023-09-19T03:21:25;99374.16;;;16.50;100.00
77192;BME280;66172;48.526;8.078;2023-09-19T03:23:51;99359.63;;;16.46;100.00
77192;BME280;66172;48.526;8.078;2023-09-19T03:26:17;99363.84;;;16.40;100.00
77192;BME280;66172;48.526;8.078;2023-09-19T03:28:43;99369.06;;;16.52;100.00
77192;BME280;66172;48.526;8.078;2023-09-19T03:31:11;99370.22;;;16.51;100.00
77192;BME280;66172;48.526;8.078;2023-09-19T03:33:37;99376.13;;;16.49;100.00
77192;BME280;66172;48.526;8.078;2023-09-19T03:36:04;99371.44;;;16.54;100.00
77192;BME280;66172;48.526;8.078;2023-09-19T03:38:33;99373.34;;;16.46;100.00
77192;BME280;66172;48.526;8.078;2023-09-19T03:41:02;99375.22;;;16.38;100.00
77192;BME280;66172;48.526;8.078;2023-09-19T03:43:28;99380.34;;;16.43;100.00
77192;BME280;66172;48.526;8.078;2023-09-19T03:45:54;99392.53;;;16.42;100.00
77192;BME280;66172;48.526;8.078;2023-09-19T03:48:20;99393.72;;;16.45;100.00
77192;BME280;66172;48.526;8.078;2023-09-19T03:50:47;99391.41;;;16.50;100.00
77192;BME280;66172;48.526;8.078;2023-09-19T03:53:13;99398.09;;;16.49;100.00
77192;BME280;66172;48.526;8.078;2023-09-19T03:55:39;99390.25;;;16.52;100.00
77192;BME280;66172;48.526;8.078;2023-09-19T03:58:05;99380.41;;;16.50;100.00
77192;BME280;66172;48.526;8.078;2023-09-19T04:00:31;99386.00;;;16.58;100.00
77192;BME280;66172;48.526;8.078;2023-09-19T04:02:57;99385.69;;;16.66;100.00
77192;BME280;66172;48.526;8.078;2023-09-19T04:05:24;99390.75;;;16.64;100.00
77192;BME280;66172;48.526;8.078;2023-09-19T04:07:50;99390.25;;;16.52;100.00
77192;BME280;66172;48.526;8.078;2023-09-19T04:10:16;99384.78;;;16.55;100.00
77192;BME280;66172;48.526;8.078;2023-09-19T04:12:52;99389.41;;;16.47;100.00
77192;BME280;66172;48.526;8.078;2023-09-19T04:15:19;99393.00;;;16.52;100.00
77192;BME280;66172;48.526;8.078;2023-09-19T04:17:45;99410.84;;;16.72;96.44
77192;BME280;66172;48.526;8.078;2023-09-19T04:20:11;99413.16;;;16.66;96.27
77192;BME280;66172;48.526;8.078;2023-09-19T04:22:38;99431.63;;;16.69;98.72
77192;BME280;66172;48.526;8.078;2023-09-19T04:25:05;99424.16;;;16.70;95.45
77192;BME280;66172;48.526;8.078;2023-09-19T04:27:33;99421.47;;;16.77;94.79
77192;BME280;66172;48.526;8.078;2023-09-19T04:29:58;99428.53;;;16.74;95.83
77192;BME280;66172;48.526;8.078;2023-09-19T04:32:29;99430.38;;;16.63;97.03
77192;BME280;66172;48.526;8.078;2023-09-19T04:34:55;99444.47;;;16.62;97.41
77192;BME280;66172;48.526;8.078;2023-09-19T04:37:26;99446.41;;;16.58;100.00
77192;BME280;66172;48.526;8.078;2023-09-19T04:39:51;99437.28;;;16.46;100.00
77192;BME280;66172;48.526;8.078;2023-09-19T04:42:17;99443.50;;;16.43;100.00
77192;BME280;66172;48.526;8.078;2023-09-19T04:44:43;99439.97;;;16.43;100.00
77192;BME280;66172;48.526;8.078;2023-09-19T04:47:09;99447.03;;;16.44;100.00
77192;BME280;66172;48.526;8.078;2023-09-19T04:49:37;99442.34;;;16.44;100.00
77192;BME280;66172;48.526;8.078;2023-09-19T04:52:03;99446.66;;;16.45;100.00
77192;BME280;66172;48.526;8.078;2023-09-19T04:54:29;99451.84;;;16.54;99.46
77192;BME280;66172;48.526;8.078;2023-09-19T04:56:55;99464.78;;;16.54;100.00
77192;BME280;66172;48.526;8.078;2023-09-19T04:59:21;99470.25;;;16.50;99.28
77192;BME280;66172;48.526;8.078;2023-09-19T05:01:47;99462.78;;;16.50;99.99
77192;BME280;66172;48.526;8.078;2023-09-19T05:04:13;99473.06;;;16.57;97.75
77192;BME280;66172;48.526;8.078;2023-09-19T05:06:39;99469.63;;;16.64;97.39
77192;BME280;66172;48.526;8.078;2023-09-19T05:09:05;99481.00;;;16.66;97.72
77192;BME280;66172;48.526;8.078;2023-09-19T05:11:31;99493.06;;;16.58;97.82
77192;BME280;66172;48.526;8.078;2023-09-19T05:13:57;99484.84;;;16.58;96.83
77192;BME280;66172;48.526;8.078;2023-09-19T05:16:22;99490.38;;;16.61;97.74
77192;BME280;66172;48.526;8.078;2023-09-19T05:18:48;99496.25;;;16.60;96.46
77192;BME280;66172;48.526;8.078;2023-09-19T05:21:15;99495.91;;;16.65;97.49
77192;BME280;66172;48.526;8.078;2023-09-19T05:23:41;99504.88;;;16.62;97.64
77192;BME280;66172;48.526;8.078;2023-09-19T05:26:08;99500.19;;;16.62;97.94
77192;BME280;66172;48.526;8.078;2023-09-19T05:28:33;99505.28;;;16.60;95.83
77192;BME280;66172;48.526;8.078;2023-09-19T05:31:01;99496.66;;;16.62;96.51
77192;BME280;66172;48.526;8.078;2023-09-19T05:33:28;99497.88;;;16.68;96.24
77192;BME280;66172;48.526;8.078;2023-09-19T05:35:53;99506.50;;;16.66;94.89
77192;BME280;66172;48.526;8.078;2023-09-19T05:38:19;99509.69;;;16.72;95.21
77192;BME280;66172;48.526;8.078;2023-09-19T05:40:46;99514.47;;;16.78;95.44
77192;BME280;66172;48.526;8.078;2023-09-19T05:43:12;99508.94;;;16.75;92.63
77192;BME280;66172;48.526;8.078;2023-09-19T05:45:40;99510.91;;;16.74;92.38
77192;BME280;66172;48.526;8.078;2023-09-19T05:48:13;99512.88;;;16.74;92.57
77192;BME280;66172;48.526;8.078;2023-09-19T05:50:41;99514.88;;;16.80;93.33
77192;BME280;66172;48.526;8.078;2023-09-19T05:53:07;99522.06;;;16.92;92.07
77192;BME280;66172;48.526;8.078;2023-09-19T05:55:33;99516.56;;;16.92;92.60
77192;BME280;66172;48.526;8.078;2023-09-19T05:57:59;99524.47;;;17.01;91.33
77192;BME280;66172;48.526;8.078;2023-09-19T06:00:25;99525.69;;;17.03;90.07
77192;BME280;66172;48.526;8.078;2023-09-19T06:02:54;99525.72;;;17.07;91.35
77192;BME280;66172;48.526;8.078;2023-09-19T06:05:20;99536.66;;;17.03;88.15
77192;BME280;66172;48.526;8.078;2023-09-19T06:07:47;99535.94;;;17.06;89.42
77192;BME280;66172;48.526;8.078;2023-09-19T06:10:13;99529.66;;;17.06;87.52
77192;BME280;66172;48.526;8.078;2023-09-19T06:12:40;99531.63;;;17.09;87.59
77192;BME280;66172;48.526;8.078;2023-09-19T06:15:09;99529.72;;;17.13;87.13
77192;BME280;66172;48.526;8.078;2023-09-19T06:17:38;99535.19;;;17.13;87.72
77192;BME280;66172;48.526;8.078;2023-09-19T06:20:05;99538.41;;;17.22;86.32
77192;BME280;66172;48.526;8.078;2023-09-19T06:22:39;99531.25;;;17.14;85.44
77192;BME280;66172;48.526;8.078;2023-09-19T06:25:08;99540.34;;;17.18;85.57
77192;BME280;66172;48.526;8.078;2023-09-19T06:27:33;99536.41;;;17.19;83.16
77192;BME280;66172;48.526;8.078;2023-09-19T06:30:02;99544.31;;;17.20;81.10
77192;BME280;66172;48.526;8.078;2023-09-19T06:32:28;99551.38;;;17.25;83.09
77192;BME280;66172;48.526;8.078;2023-09-19T06:34:54;99541.03;;;17.08;80.94
77192;BME280;66172;48.526;8.078;2023-09-19T06:37:21;99542.31;;;17.21;82.26
77192;BME280;66172;48.526;8.078;2023-09-19T06:39:47;99547.09;;;17.24;80.31
77192;BME280;66172;48.526;8.078;2023-09-19T06:42:16;99545.16;;;17.31;80.21
77192;BME280;66172;48.526;8.078;2023-09-19T06:44:43;99554.69;;;17.44;82.41
77192;BME280;66172;48.526;8.078;2023-09-19T06:47:09;99546.09;;;17.49;78.80
77192;BME280;66172;48.526;8.078;2023-09-19T06:49:36;99558.69;;;17.54;81.01
77192;BME280;66172;48.526;8.078;2023-09-19T06:52:02;99557.59;;;17.59;82.85
77192;BME280;66172;48.526;8.078;2023-09-19T06:54:29;99564.28;;;17.61;79.89
77192;BME280;66172;48.526;8.078;2023-09-19T06:56:59;99565.22;;;17.83;77.27
77192;BME280;66172;48.526;8.078;2023-09-19T06:59:25;99567.06;;;17.68;77.95
77192;BME280;66172;48.526;8.078;2023-09-19T07:01:51;99573.38;;;17.72;82.90
77192;BME280;66172;48.526;8.078;2023-09-19T07:04:17;99574.03;;;17.55;79.39
77192;BME280;66172;48.526;8.078;2023-09-19T07:06:51;99572.19;;;17.70;82.42
77192;BME280;66172;48.526;8.078;2023-09-19T07:09:17;99584.19;;;17.47;78.16
77192;BME280;66172;48.526;8.078;2023-09-19T07:11:45;99586.66;;;17.60;79.05
77192;BME280;66172;48.526;8.078;2023-09-19T07:14:11;99580.13;;;17.82;82.10
77192;BME280;66172;48.526;8.078;2023-09-19T07:16:38;99588.44;;;17.89;80.32
77192;BME280;66172;48.526;8.078;2023-09-19T07:19:05;99582.34;;;18.27;76.34
77192;BME280;66172;48.526;8.078;2023-09-19T07:21:31;99591.97;;;18.65;75.97
77192;BME280;66172;48.526;8.078;2023-09-19T07:24:01;99582.66;;;19.37;70.44
77192;BME280;66172;48.526;8.078;2023-09-19T07:26:28;99592.06;;;19.96;70.55
77192;BME280;66172;48.526;8.078;2023-09-19T07:28:54;99589.91;;;21.33;64.65
77192;BME280;66172;48.526;8.078;2023-09-19T07:31:21;99584.66;;;23.45;57.81
77192;BME280;66172;48.526;8.078;2023-09-19T07:33:48;99583.75;;;25.13;51.38
77192;BME280;66172;48.526;8.078;2023-09-19T07:36:14;99587.72;;;26.09;48.58
77192;BME280;66172;48.526;8.078;2023-09-19T07:38:41;99590.00;;;27.47;45.07
77192;BME280;66172;48.526;8.078;2023-09-19T07:41:08;99590.75;;;28.51;43.67
77192;BME280;66172;48.526;8.078;2023-09-19T07:43:36;99593.38;;;29.29;40.65
77192;BME280;66172;48.526;8.078;2023-09-19T07:46:05;99602.78;;;29.53;39.71
77192;BME280;66172;48.526;8.078;2023-09-19T07:48:33;99599.88;;;29.74;36.96
77192;BME280;66172;48.526;8.078;2023-09-19T07:51:06;99606.75;;;28.94;39.71
77192;BME280;66172;48.526;8.078;2023-09-19T07:53:34;99601.41;;;29.17;40.03
77192;BME280;66172;48.526;8.078;2023-09-19T07:56:04;99604.19;;;28.56;40.83
77192;BME280;66172;48.526;8.078;2023-09-19T07:58:31;99602.22;;;28.44;40.67
77192;BME280;66172;48.526;8.078;2023-09-19T08:01:08;99611.66;;;27.43;41.71
77192;BME280;66172;48.526;8.078;2023-09-19T08:03:34;99616.69;;;28.64;41.69
77192;BME280;66172;48.526;8.078;2023-09-19T08:06:03;99613.31;;;28.69;40.83
77192;BME280;66172;48.526;8.078;2023-09-19T08:08:29;99613.69;;;28.80;39.32
77192;BME280;66172;48.526;8.078;2023-09-19T08:10:56;99618.38;;;27.58;41.11
77192;BME280;66172;48.526;8.078;2023-09-19T08:13:23;99619.41;;;28.55;40.12
77192;BME280;66172;48.526;8.078;2023-09-19T08:15:50;99613.75;;;28.46;40.15
77192;BME280;66172;48.526;8.078;2023-09-19T08:18:17;99625.75;;;28.12;40.76
77192;BME280;66172;48.526;8.078;2023-09-19T08:20:43;99622.53;;;28.78;39.92
77192;BME280;66172;48.526;8.078;2023-09-19T08:23:11;99619.25;;;29.42;40.43
77192;BME280;66172;48.526;8.078;2023-09-19T08:25:37;99628.28;;;29.95;39.90
77192;BME280;66172;48.526;8.078;2023-09-19T08:28:05;99622.22;;;30.05;39.13
77192;BME280;66172;48.526;8.078;2023-09-19T08:30:34;99626.28;;;29.95;39.02
77192;BME280;66172;48.526;8.078;2023-09-19T08:33:00;99632.84;;;30.38;35.08
77192;BME280;66172;48.526;8.078;2023-09-19T08:35:27;99632.50;;;29.90;38.03
77192;BME280;66172;48.526;8.078;2023-09-19T08:37:53;99634.59;;;29.59;39.23
77192;BME280;66172;48.526;8.078;2023-09-19T08:40:21;99643.22;;;29.34;40.42
77192;BME280;66172;48.526;8.078;2023-09-19T08:42:51;99642.44;;;29.33;38.88
77192;BME280;66172;48.526;8.078;2023-09-19T08:45:17;99639.25;;;27.66;40.21
77192;BME280;66172;48.526;8.078;2023-09-19T08:50:33;99640.09;;;26.17;44.45
77192;BME280;66172;48.526;8.078;2023-09-19T08:53:09;99645.19;;;25.38;46.60
77192;BME280;66172;48.526;8.078;2023-09-19T08:55:36;99656.09;;;24.97;48.64
77192;BME280;66172;48.526;8.078;2023-09-19T08:58:10;99647.69;;;24.18;49.37
77192;BME280;66172;48.526;8.078;2023-09-19T09:00:37;99651.13;;;23.79;50.90
77192;BME280;66172;48.526;8.078;2023-09-19T09:03:09;99662.78;;;23.44;52.21
77192;BME280;66172;48.526;8.078;2023-09-19T09:05:36;99640.94;;;23.19;51.87
77192;BME280;66172;48.526;8.078;2023-09-19T09:08:04;99646.09;;;23.47;52.29
77192;BME280;66172;48.526;8.078;2023-09-19T09:10:31;99645.03;;;22.80;52.49
77192;BME280;66172;48.526;8.078;2023-09-19T09:12:58;99650.97;;;23.09;54.13
77192;BME280;66172;48.526;8.078;2023-09-19T09:15:24;99650.34;;;22.68;54.04
77192;BME280;66172;48.526;8.078;2023-09-19T09:17:51;99648.16;;;22.49;54.24
77192;BME280;66172;48.526;8.078;2023-09-19T09:20:19;99648.88;;;22.19;54.95
77192;BME280;66172;48.526;8.078;2023-09-19T09:22:52;99657.38;;;22.01;54.58
77192;BME280;66172;48.526;8.078;2023-09-19T09:25:19;99653.03;;;22.00;55.55
77192;BME280;66172;48.526;8.078;2023-09-19T09:27:59;99660.06;;;22.08;53.81
77192;BME280;66172;48.526;8.078;2023-09-19T09:30:36;99653.53;;;21.84;55.28
77192;BME280;66172;48.526;8.078;2023-09-19T09:33:12;99649.06;;;21.53;56.35
77192;BME280;66172;48.526;8.078;2023-09-19T09:35:49;99653.13;;;21.34;56.96
77192;BME280;66172;48.526;8.078;2023-09-19T09:38:18;99658.63;;;21.41;55.12
77192;BME280;66172;48.526;8.078;2023-09-19T09:40:49;99662.47;;;21.55;57.49
77192;BME280;66172;48.526;8.078;2023-09-19T09:43:38;99654.38;;;21.23;57.58
77192;BME280;66172;48.526;8.078;2023-09-19T09:46:11;99654.75;;;21.28;57.36
77192;BME280;66172;48.526;8.078;2023-09-19T09:49:05;99651.13;;;21.38;57.59
77192;BME280;66172;48.526;8.078;2023-09-19T09:52:06;99653.91;;;22.99;55.14
77192;BME280;66172;48.526;8.078;2023-09-19T09:55:01;99646.84;;;24.83;49.39
77192;BME280;66172;48.526;8.078;2023-09-19T09:57:31;99652.75;;;25.21;50.80
77192;BME280;66172;48.526;8.078;2023-09-19T09:59:58;99647.66;;;24.80;49.07
77192;BME280;66172;48.526;8.078;2023-09-19T10:02:40;99655.06;;;24.05;49.08
77192;BME280;66172;48.526;8.078;2023-09-19T10:05:13;99653.44;;;23.61;48.49
77192;BME280;66172;48.526;8.078;2023-09-19T10:07:48;99645.50;;;23.32;51.57
77192;BME280;66172;48.526;8.078;2023-09-19T10:10:35;99640.59;;;24.56;48.67
77192;BME280;66172;48.526;8.078;2023-09-19T10:13:12;99636.16;;;26.44;44.75
77192;BME280;66172;48.526;8.078;2023-09-19T10:15:39;99640.78;;;26.92;43.19
77192;BME280;66172;48.526;8.078;2023-09-19T10:18:10;99630.84;;;27.03;42.56
77192;BME280;66172;48.526;8.078;2023-09-19T10:20:37;99635.50;;;27.48;41.91
77192;BME280;66172;48.526;8.078;2023-09-19T10:23:11;99631.22;;;27.68;38.55
77192;BME280;66172;48.526;8.078;2023-09-19T10:25:43;99634.53;;;29.41;38.61
77192;BME280;66172;48.526;8.078;2023-09-19T10:28:14;99633.84;;;31.13;36.35
77192;BME280;66172;48.526;8.078;2023-09-19T10:30:45;99635.75;;;31.73;33.90
77192;BME280;66172;48.526;8.078;2023-09-19T10:33:14;99629.31;;;32.43;30.92
77192;BME280;66172;48.526;8.078;2023-09-19T10:35:45;99620.81;;;32.82;30.60
77192;BME280;66172;48.526;8.078;2023-09-19T10:38:13;99628.03;;;33.47;29.96
77192;BME280;66172;48.526;8.078;2023-09-19T10:40:40;99627.59;;;33.34;29.54
77192;BME280;66172;48.526;8.078;2023-09-19T10:43:12;99631.19;;;32.08;31.77
77192;BME280;66172;48.526;8.078;2023-09-19T10:45:38;99626.34;;;31.99;31.51
77192;BME280;66172;48.526;8.078;2023-09-19T10:48:05;99608.06;;;33.15;31.21
77192;BME280;66172;48.526;8.078;2023-09-19T10:53:20;99623.78;;;31.63;30.11
77192;BME280;66172;48.526;8.078;2023-09-19T10:55:49;99613.59;;;32.13;30.14
77192;BME280;66172;48.526;8.078;2023-09-19T10:58:28;99609.31;;;31.79;32.34
77192;BME280;66172;48.526;8.078;2023-09-19T11:00:58;99608.38;;;32.88;30.57
77192;BME280;66172;48.526;8.078;2023-09-19T11:03:38;99603.22;;;33.16;28.56
77192;BME280;66172;48.526;8.078;2023-09-19T11:06:18;99605.75;;;32.99;28.80
77192;BME280;66172;48.526;8.078;2023-09-19T11:08:54;99609.69;;;33.72;29.29
77192;BME280;66172;48.526;8.078;2023-09-19T11:14:40;99604.69;;;32.67;30.24
77192;BME280;66172;48.526;8.078;2023-09-19T11:30:45;99590.38;;;32.42;29.87
77192;BME280;66172;48.526;8.078;2023-09-19T11:36:15;99593.75;;;31.36;31.49
77192;BME280;66172;48.526;8.078;2023-09-19T11:43:49;99586.59;;;28.77;36.78
77192;BME280;66172;48.526;8.078;2023-09-19T11:46:17;99573.75;;;29.96;33.66
77192;BME280;66172;48.526;8.078;2023-09-19T11:48:48;99570.94;;;30.50;33.17
77192;BME280;66172;48.526;8.078;2023-09-19T11:51:17;99570.19;;;29.86;31.67
77192;BME280;66172;48.526;8.078;2023-09-19T11:53:53;99575.75;;;30.41;32.37
77192;BME280;66172;48.526;8.078;2023-09-19T11:56:21;99567.34;;;30.50;33.71
77192;BME280;66172;48.526;8.078;2023-09-19T11:58:54;99565.50;;;30.10;32.16
77192;BME280;66172;48.526;8.078;2023-09-19T12:01:31;99574.53;;;30.23;31.76
77192;BME280;66172;48.526;8.078;2023-09-19T12:03:59;99570.97;;;29.96;32.38
77192;BME280;66172;48.526;8.078;2023-09-19T12:06:26;99556.03;;;29.32;33.75
77192;BME280;66172;48.526;8.078;2023-09-19T12:08:52;99564.88;;;30.06;31.60
77192;BME280;66172;48.526;8.078;2023-09-19T12:11:21;99552.94;;;30.75;31.17
77192;BME280;66172;48.526;8.078;2023-09-19T12:13:49;99550.97;;;30.57;32.66
77192;BME280;66172;48.526;8.078;2023-09-19T12:16:16;99559.81;;;30.74;31.81
77192;BME280;66172;48.526;8.078;2023-09-19T12:18:44;99550.25;;;30.81;30.79
77192;BME280;66172;48.526;8.078;2023-09-19T12:21:24;99547.91;;;30.88;30.56
77192;BME280;66172;48.526;8.078;2023-09-19T12:29:31;99544.44;;;31.02;30.56
77192;BME280;66172;48.526;8.078;2023-09-19T12:31:58;99552.41;;;30.26;31.65
77192;BME280;66172;48.526;8.078;2023-09-19T12:34:26;99541.34;;;30.04;30.51
77192;BME280;66172;48.526;8.078;2023-09-19T12:39:39;99536.69;;;29.24;32.47
77192;BME280;66172;48.526;8.078;2023-09-19T12:42:08;99534.81;;;27.73;33.45
77192;BME280;66172;48.526;8.078;2023-09-19T12:44:43;99527.88;;;28.64;34.38
77192;BME280;66172;48.526;8.078;2023-09-19T12:47:18;99533.50;;;28.95;33.49
77192;BME280;66172;48.526;8.078;2023-09-19T12:50:05;99521.13;;;29.23;31.04
77192;BME280;66172;48.526;8.078;2023-09-19T12:52:39;99534.66;;;29.25;30.38
77192;BME280;66172;48.526;8.078;2023-09-19T12:55:05;99537.84;;;28.96;31.03
77192;BME280;66172;48.526;8.078;2023-09-19T12:57:36;99530.50;;;28.59;31.87
77192;BME280;66172;48.526;8.078;2023-09-19T13:00:03;99528.72;;;28.21;33.38
77192;BME280;66172;48.526;8.078;2023-09-19T13:02:31;99522.34;;;28.73;32.90
77192;BME280;66172;48.526;8.078;2023-09-19T13:04:58;99523.81;;;28.87;31.99
77192;BME280;66172;48.526;8.078;2023-09-19T13:07:43;99524.59;;;28.35;32.85
77192;BME280;66172;48.526;8.078;2023-09-19T13:10:11;99521.06;;;28.44;32.27
77192;BME280;66172;48.526;8.078;2023-09-19T13:12:38;99502.63;;;28.86;31.12
77192;BME280;66172;48.526;8.078;2023-09-19T13:15:11;99516.47;;;28.50;32.17
77192;BME280;66172;48.526;8.078;2023-09-19T13:17:43;99510.25;;;28.55;31.46
77192;BME280;66172;48.526;8.078;2023-09-19T13:20:23;99508.13;;;27.94;33.11
77192;BME280;66172;48.526;8.078;2023-09-19T13:22:54;99509.72;;;28.16;34.11
77192;BME280;66172;48.526;8.078;2023-09-19T13:25:24;99495.66;;;27.86;34.89
77192;BME280;66172;48.526;8.078;2023-09-19T13:27:52;99496.34;;;27.99;34.65
77192;BME280;66172;48.526;8.078;2023-09-19T13:30:21;99494.16;;;28.15;34.20
77192;BME280;66172;48.526;8.078;2023-09-19T13:32:47;99494.22;;;27.81;33.72
77192;BME280;66172;48.526;8.078;2023-09-19T13:35:14;99494.53;;;27.02;34.16
77192;BME280;66172;48.526;8.078;2023-09-19T13:37:40;99493.84;;;26.85;35.43
77192;BME280;66172;48.526;8.078;2023-09-19T13:40:10;99498.75;;;26.56;35.33
77192;BME280;66172;48.526;8.078;2023-09-19T13:42:37;99496.84;;;26.65;35.53
77192;BME280;66172;48.526;8.078;2023-09-19T13:45:04;99495.81;;;26.47;35.59
77192;BME280;66172;48.526;8.078;2023-09-19T13:47:33;99488.34;;;26.44;36.60
77192;BME280;66172;48.526;8.078;2023-09-19T13:50:01;99487.59;;;26.81;35.18
77192;BME280;66172;48.526;8.078;2023-09-19T13:52:29;99484.75;;;26.43;36.89
77192;BME280;66172;48.526;8.078;2023-09-19T13:54:56;99474.84;;;26.67;36.04